Time;durP1;ratioP1;P1;durP2;ratioP2;P2;SDS_P1;SDS_P2;PMS_P1;PMS_P2;Temp;Humidity;BMP_temperature;BMP_pressure;BME280_temperature;BME280_humidity;BME280_pressure;Samples;Min_cycle;Max_cycle;Signal;HPM_P1;HPM_P2
2022/06/21 00:01:52;;;;;;;2.83;2.53;;;13.80;99.90;;;;;;5101753;27;20483;-71
2022/06/21 00:04:19;;;;;;;2.30;1.93;;;13.80;99.90;;;;;;5107210;28;20506;-71
2022/06/21 00:06:46;;;;;;;2.90;2.27;;;13.90;99.90;;;;;;5097981;28;20486;-72
2022/06/21 00:09:14;;;;;;;4.60;1.80;;;14.00;99.90;;;;;;5104003;28;20523;-71
2022/06/21 00:11:42;;;;;;;4.20;2.03;;;13.90;99.90;;;;;;5103970;27;20491;-71
2022/06/21 00:14:11;;;;;;;2.80;2.50;;;13.80;99.90;;;;;;5095942;28;20457;-71
2022/06/21 00:16:38;;;;;;;2.33;1.87;;;13.70;99.90;;;;;;5096312;27;20462;-71
2022/06/21 00:19:07;;;;;;;2.40;2.20;;;13.60;99.90;;;;;;5101068;28;20560;-71
2022/06/21 00:21:36;;;;;;;4.23;2.30;;;13.30;99.90;;;;;;5093683;28;20829;-72
2022/06/21 00:24:03;;;;;;;2.90;2.60;;;13.30;99.90;;;;;;5091115;28;20457;-71
2022/06/21 00:26:31;;;;;;;2.70;2.00;;;13.20;99.90;;;;;;5093407;28;20462;-72
2022/06/21 00:28:58;;;;;;;3.60;2.20;;;13.00;99.90;;;;;;5104604;27;20544;-71
2022/06/21 00:31:29;;;;;;;3.20;1.90;;;13.20;99.90;;;;;;5093027;28;20505;-72
2022/06/21 00:33:57;;;;;;;4.47;2.83;;;13.30;99.90;;;;;;5098991;28;20565;-72
2022/06/21 00:36:28;;;;;;;2.90;2.70;;;13.30;99.90;;;;;;5099382;28;20432;-72
2022/06/21 00:38:58;;;;;;;2.27;2.07;;;13.50;99.90;;;;;;5097233;27;20904;-72
2022/06/21 00:41:35;;;;;;;3.10;2.57;;;13.40;99.90;;;;;;5091552;28;20469;-72
2022/06/21 00:44:05;;;;;;;3.60;2.37;;;13.40;99.90;;;;;;5093650;28;20478;-72
2022/06/21 00:46:37;;;;;;;2.67;2.00;;;13.20;99.90;;;;;;5091097;28;21099;-72
2022/06/21 00:49:06;;;;;;;3.50;2.60;;;13.30;99.90;;;;;;5089881;28;20544;-72
2022/06/21 00:51:38;;;;;;;2.27;2.07;;;13.20;99.90;;;;;;5097359;28;20550;-72
2022/06/21 00:54:11;;;;;;;2.80;2.50;;;13.20;99.90;;;;;;5097739;28;21032;-72
2022/06/21 00:56:42;;;;;;;2.70;2.23;;;13.20;99.90;;;;;;5095529;28;21253;-72
2022/06/21 00:59:21;;;;;;;2.13;2.00;;;13.10;99.90;;;;;;5096170;28;20457;-72
2022/06/21 01:01:49;;;;;;;3.93;2.37;;;13.10;99.90;;;;;;5091354;28;20568;-72
2022/06/21 01:04:23;;;;;;;5.00;3.83;;;13.00;99.90;;;;;;5093833;27;20440;-72
2022/06/21 01:06:56;;;;;;;3.23;2.80;;;13.00;99.90;;;;;;5095972;28;20472;-72
2022/06/21 01:09:27;;;;;;;2.63;2.43;;;13.00;99.90;;;;;;5095362;28;20470;-73
2022/06/21 01:11:58;;;;;;;2.90;2.60;;;12.90;99.90;;;;;;5094436;27;20447;-72
2022/06/21 01:14:27;;;;;;;2.47;2.27;;;12.90;99.90;;;;;;5095475;28;20567;-72
2022/06/21 01:16:54;;;;;;;3.30;2.90;;;12.90;99.90;;;;;;5092730;28;20431;-71
2022/06/21 01:19:32;;;;;;;4.43;2.30;;;12.80;99.90;;;;;;5096489;28;20470;-71
2022/06/21 01:22:08;;;;;;;4.00;2.47;;;12.60;99.90;;;;;;5089211;28;20452;-72
2022/06/21 01:28:01;;;;;;;6.83;2.80;;;12.40;99.90;;;;;;5090047;27;20472;-72
2022/06/21 01:30:29;;;;;;;3.90;2.30;;;12.30;99.90;;;;;;5093071;28;20963;-72
2022/06/21 01:32:58;;;;;;;3.60;3.30;;;12.20;99.90;;;;;;5095190;28;20485;-72
2022/06/21 01:35:43;;;;;;;4.50;2.70;;;12.00;99.90;;;;;;5097946;28;20455;-72
2022/06/21 01:38:20;;;;;;;3.70;2.83;;;12.20;99.90;;;;;;5098473;28;20843;-72
2022/06/21 01:40:53;;;;;;;3.53;2.50;;;12.30;99.90;;;;;;5095671;28;20439;-72
2022/06/21 01:43:26;;;;;;;4.23;2.77;;;12.50;99.90;;;;;;5081744;28;20466;-72
2022/06/21 01:45:57;;;;;;;3.37;2.67;;;12.50;99.90;;;;;;5093305;28;20440;-71
2022/06/21 01:48:28;;;;;;;3.83;2.77;;;12.10;99.90;;;;;;5091251;28;20835;-70
2022/06/21 01:51:02;;;;;;;2.83;2.53;;;11.80;99.90;;;;;;5096495;28;20994;-71
2022/06/21 01:53:29;;;;;;;3.33;2.50;;;11.90;99.90;;;;;;5102669;27;20558;-71
2022/06/21 01:56:01;;;;;;;3.30;2.67;;;12.00;99.90;;;;;;5091759;28;20465;-71
2022/06/21 01:58:33;;;;;;;4.67;4.23;;;12.20;99.90;;;;;;5098283;27;20614;-71
2022/06/21 02:01:03;;;;;;;3.30;3.07;;;12.20;99.90;;;;;;5090540;28;21013;-71
2022/06/21 02:03:33;;;;;;;4.00;3.03;;;12.10;99.90;;;;;;5098270;28;20439;-72
2022/06/21 02:06:03;;;;;;;6.77;2.60;;;12.10;99.90;;;;;;5094437;28;20430;-71
2022/06/21 02:08:38;;;;;;;4.30;2.80;;;12.10;99.90;;;;;;5098986;28;20442;-71
2022/06/21 02:11:13;;;;;;;4.53;3.43;;;12.00;99.90;;;;;;5095588;28;20447;-71
2022/06/21 02:13:45;;;;;;;2.80;2.20;;;11.90;99.90;;;;;;5092587;28;20600;-72
2022/06/21 02:16:15;;;;;;;3.20;2.57;;;11.90;99.90;;;;;;5091301;28;20808;-71
2022/06/21 02:18:46;;;;;;;4.33;3.93;;;12.00;99.90;;;;;;5093413;28;20456;-71
2022/06/21 02:21:17;;;;;;;3.43;3.13;;;12.00;99.90;;;;;;5093821;28;20474;-71
2022/06/21 02:23:45;;;;;;;6.23;2.77;;;12.00;99.90;;;;;;5089945;28;20629;-72
2022/06/21 02:26:13;;;;;;;3.50;2.50;;;12.10;99.90;;;;;;5090275;28;20438;-71
2022/06/21 02:28:42;;;;;;;5.23;2.90;;;12.20;99.90;;;;;;5096119;27;20451;-71
2022/06/21 02:31:09;;;;;;;3.03;2.83;;;12.20;99.90;;;;;;5095330;28;20951;-72
2022/06/21 02:33:37;;;;;;;2.80;2.40;;;12.10;99.90;;;;;;5096065;28;20457;-71
2022/06/21 02:36:08;;;;;;;3.03;2.00;;;12.10;99.90;;;;;;5105371;28;20448;-71
2022/06/21 02:38:40;;;;;;;4.90;2.57;;;12.10;99.90;;;;;;5110448;28;20466;-71
2022/06/21 02:41:13;;;;;;;3.27;2.67;;;12.10;99.90;;;;;;5108634;28;20475;-71
2022/06/21 02:43:44;;;;;;;2.30;2.10;;;12.10;99.90;;;;;;5111788;28;20928;-71
2022/06/21 02:46:15;;;;;;;4.40;2.70;;;12.00;99.90;;;;;;5103705;27;20464;-71
2022/06/21 02:48:45;;;;;;;3.10;2.63;;;12.00;99.90;;;;;;5094832;28;20466;-71
2022/06/21 02:51:17;;;;;;;4.10;2.63;;;11.90;99.90;;;;;;5081518;28;20449;-70
2022/06/21 02:53:53;;;;;;;2.63;2.43;;;11.90;99.90;;;;;;5086840;28;21391;-70
2022/06/21 02:56:26;;;;;;;8.83;2.60;;;11.80;99.90;;;;;;5088573;28;21060;-70
2022/06/21 02:58:57;;;;;;;4.20;2.73;;;11.80;99.90;;;;;;5090383;28;20503;-71
2022/06/21 03:01:29;;;;;;;7.00;2.83;;;11.60;99.90;;;;;;5081186;28;21136;-71
2022/06/21 03:03:58;;;;;;;3.53;2.50;;;11.60;99.90;;;;;;5077725;27;20450;-71
2022/06/21 03:06:26;;;;;;;6.93;3.10;;;11.70;99.90;;;;;;5094972;27;21430;-70
2022/06/21 03:08:58;;;;;;;5.10;2.83;;;11.40;99.90;;;;;;5079552;28;20431;-71
2022/06/21 03:11:28;;;;;;;4.10;2.90;;;11.50;99.90;;;;;;5091086;28;20454;-71
2022/06/21 03:14:01;;;;;;;6.60;2.77;;;11.60;99.90;;;;;;5081196;28;20937;-72
2022/06/21 03:16:29;;;;;;;3.80;2.70;;;11.70;99.90;;;;;;5088371;28;20578;-71
2022/06/21 03:19:02;;;;;;;5.07;2.53;;;11.60;99.90;;;;;;5086050;28;20510;-71
2022/06/21 03:21:32;;;;;;;6.10;2.50;;;11.20;99.90;;;;;;5085043;27;20496;-71
2022/06/21 03:24:02;;;;;;;9.63;2.13;;;11.00;99.90;;;;;;5097585;28;20453;-71
2022/06/21 03:26:30;;;;;;;2.63;2.33;;;11.20;99.90;;;;;;5095949;28;20484;-71
2022/06/21 03:28:59;;;;;;;3.83;3.13;;;11.40;99.90;;;;;;5088142;28;26429;-72
2022/06/21 03:31:28;;;;;;;3.67;2.70;;;11.50;99.90;;;;;;5095441;28;20938;-72
2022/06/21 03:33:57;;;;;;;4.10;2.53;;;11.60;99.90;;;;;;5090486;28;22945;-72
2022/06/21 03:36:26;;;;;;;3.27;2.63;;;11.80;99.90;;;;;;5093919;27;20465;-72
2022/06/21 03:38:58;;;;;;;3.93;2.53;;;12.00;99.90;;;;;;5089903;28;20457;-71
2022/06/21 03:44:26;;;;;;;5.33;2.60;;;12.30;99.90;;;;;;5062043;28;20428;-71
2022/06/21 03:46:58;;;;;;;4.27;2.03;;;12.40;99.90;;;;;;5095112;27;20504;-71
2022/06/21 03:49:31;;;;;;;3.77;2.50;;;12.30;99.90;;;;;;5090133;28;20548;-72
2022/06/21 03:52:00;;;;;;;3.97;2.70;;;12.40;99.90;;;;;;5085292;28;21450;-71
2022/06/21 03:54:32;;;;;;;4.67;2.57;;;12.50;99.90;;;;;;5104610;27;20912;-71
2022/06/21 03:57:07;;;;;;;10.40;3.57;;;12.50;99.90;;;;;;5102577;27;20498;-72
2022/06/21 03:59:39;;;;;;;2.70;2.37;;;12.40;99.90;;;;;;5099022;28;20565;-72
2022/06/21 04:02:12;;;;;;;4.53;3.00;;;12.30;99.90;;;;;;5103467;28;20527;-70
2022/06/21 04:04:45;;;;;;;6.03;2.83;;;12.40;99.90;;;;;;5097149;28;20431;-71
2022/06/21 04:07:17;;;;;;;2.93;2.70;;;12.40;99.90;;;;;;5101275;28;20797;-71
2022/06/21 04:09:50;;;;;;;14.13;3.03;;;12.40;99.90;;;;;;5098707;27;20465;-71
2022/06/21 04:12:22;;;;;;;4.90;2.90;;;12.50;99.90;;;;;;5100642;28;20550;-72
2022/06/21 04:14:56;;;;;;;3.10;2.30;;;12.50;99.90;;;;;;5096209;28;20456;-71
2022/06/21 04:17:28;;;;;;;6.43;3.37;;;12.60;99.90;;;;;;5097188;28;20463;-71
2022/06/21 04:19:58;;;;;;;5.33;2.70;;;12.70;99.90;;;;;;5096834;28;20464;-71
2022/06/21 04:22:34;;;;;;;8.67;3.60;;;12.80;99.90;;;;;;5092602;28;20495;-71
2022/06/21 04:25:10;;;;;;;3.77;3.10;;;12.80;99.90;;;;;;5102242;28;20434;-71
2022/06/21 04:27:41;;;;;;;3.63;3.33;;;12.80;99.90;;;;;;5096670;27;20420;-71
2022/06/21 04:30:23;;;;;;;15.23;3.83;;;12.90;99.90;;;;;;5099823;28;20534;-71
2022/06/21 04:32:56;;;;;;;6.20;3.70;;;12.80;99.90;;;;;;5099282;28;20526;-71
2022/06/21 04:35:28;;;;;;;2.33;2.07;;;12.80;99.90;;;;;;5098889;28;20851;-71
2022/06/21 04:38:00;;;;;;;3.20;2.83;;;12.70;99.90;;;;;;5101511;28;21038;-71
2022/06/21 04:40:34;;;;;;;6.13;2.90;;;12.60;99.90;;;;;;5099409;28;20550;-70
2022/06/21 04:43:07;;;;;;;5.03;2.93;;;12.70;99.90;;;;;;5098953;28;20528;-71
2022/06/21 04:45:42;;;;;;;2.67;2.03;;;12.80;99.90;;;;;;5102215;27;20423;-72
2022/06/21 04:48:30;;;;;;;6.90;3.00;;;12.90;99.90;;;;;;5103243;27;21231;-72
2022/06/21 04:51:11;;;;;;;5.93;4.57;;;13.20;99.90;;;;;;5097626;27;20443;-71
2022/06/21 04:53:48;;;;;;;5.03;3.37;;;13.40;99.90;;;;;;5094158;28;20527;-71
2022/06/21 04:56:26;;;;;;;12.33;6.33;;;13.50;99.90;;;;;;5099443;27;20465;-71
2022/06/21 04:58:53;;;;;;;4.70;3.37;;;13.60;99.90;;;;;;5097327;27;20428;-71
2022/06/21 05:01:32;;;;;;;9.53;4.73;;;13.70;99.90;;;;;;5090684;27;20452;-71
2022/06/21 05:04:04;;;;;;;12.30;5.40;;;13.90;99.90;;;;;;5103216;28;21000;-71
2022/06/21 05:06:32;;;;;;;4.47;3.03;;;14.10;99.90;;;;;;5099575;28;20427;-72
2022/06/21 05:08:59;;;;;;;7.90;3.67;;;14.30;99.90;;;;;;5105542;28;20528;-71
2022/06/21 05:11:27;;;;;;;3.97;3.27;;;14.40;99.90;;;;;;5101371;28;20890;-71
2022/06/21 05:13:57;;;;;;;4.10;2.93;;;14.60;99.90;;;;;;5105512;28;20452;-71
2022/06/21 05:16:29;;;;;;;9.73;3.07;;;14.70;99.90;;;;;;5096118;28;20523;-71
2022/06/21 05:19:02;;;;;;;3.37;2.53;;;14.80;99.90;;;;;;5095661;27;20453;-71
2022/06/21 05:21:35;;;;;;;3.47;2.27;;;14.70;99.90;;;;;;5091056;28;20499;-72
2022/06/21 05:24:03;;;;;;;11.20;2.47;;;15.10;99.90;;;;;;5101470;28;20458;-71
2022/06/21 05:26:34;;;;;;;4.33;2.27;;;15.50;99.90;;;;;;5103513;28;20886;-71
2022/06/21 05:29:09;;;;;;;3.77;2.50;;;15.90;99.90;;;;;;5107330;28;20449;-72
2022/06/21 05:31:42;;;;;;;10.07;2.93;;;16.10;99.90;;;;;;5104637;28;20437;-72
2022/06/21 05:34:17;;;;;;;3.13;2.60;;;16.40;99.90;;;;;;5101270;28;20878;-72
2022/06/21 05:36:56;;;;;;;3.87;2.37;;;16.80;99.90;;;;;;5103758;27;20438;-71
2022/06/21 05:39:26;;;;;;;4.37;2.40;;;16.60;99.90;;;;;;5104088;28;20460;-71
2022/06/21 05:41:57;;;;;;;2.60;2.07;;;16.90;99.90;;;;;;5108304;27;20464;-71
2022/06/21 05:44:32;;;;;;;3.73;2.73;;;16.80;99.90;;;;;;5107210;27;20447;-72
2022/06/21 05:47:05;;;;;;;6.83;2.43;;;16.80;99.90;;;;;;5100038;28;20418;-71
2022/06/21 05:49:34;;;;;;;5.93;2.23;;;16.70;99.90;;;;;;5102033;28;20969;-71
2022/06/21 05:52:05;;;;;;;4.00;2.47;;;17.00;99.90;;;;;;5098690;27;20482;-71
2022/06/21 05:54:36;;;;;;;4.93;2.17;;;17.30;99.90;;;;;;5100267;28;20584;-72
2022/06/21 05:57:07;;;;;;;5.20;2.67;;;17.70;99.90;;;;;;5105353;28;20522;-71
2022/06/21 05:59:34;;;;;;;3.23;2.70;;;18.10;99.90;;;;;;5099142;28;20461;-73
2022/06/21 06:02:09;;;;;;;9.33;3.83;;;18.20;99.90;;;;;;5104181;28;20877;-71
2022/06/21 06:04:43;;;;;;;3.77;2.20;;;18.40;99.90;;;;;;5099894;28;20455;-71
2022/06/21 06:07:15;;;;;;;5.40;3.77;;;18.40;99.90;;;;;;5104350;28;20437;-71
2022/06/21 06:09:46;;;;;;;2.97;2.50;;;18.50;99.90;;;;;;5105591;27;20979;-71
2022/06/21 06:12:18;;;;;;;6.50;2.83;;;18.60;99.90;;;;;;5099437;28;21029;-71
2022/06/21 06:14:50;;;;;;;4.20;2.20;;;18.20;99.90;;;;;;5098545;28;20481;-71
2022/06/21 06:17:26;;;;;;;10.30;2.37;;;18.30;99.90;;;;;;5103704;28;20458;-71
2022/06/21 06:19:59;;;;;;;6.90;3.07;;;18.50;99.90;;;;;;5103905;28;20998;-71
2022/06/21 06:22:35;;;;;;;5.87;2.60;;;19.00;99.90;;;;;;5099166;28;20564;-71
2022/06/21 06:25:11;;;;;;;6.67;3.03;;;19.10;99.90;;;;;;5100439;28;20453;-71
2022/06/21 06:27:45;;;;;;;5.27;2.67;;;19.30;99.90;;;;;;5103306;27;20449;-71
2022/06/21 06:30:18;;;;;;;2.40;2.03;;;19.50;99.90;;;;;;5100486;28;20448;-71
2022/06/21 06:32:59;;;;;;;3.50;2.40;;;19.40;99.90;;;;;;5103160;28;20457;-71
2022/06/21 06:35:27;;;;;;;4.60;1.87;;;19.40;99.90;;;;;;5102277;28;20576;-71
2022/06/21 06:37:54;;;;;;;6.17;1.83;;;19.70;99.90;;;;;;5105012;27;20507;-71
2022/06/21 06:40:27;;;;;;;3.87;2.83;;;19.80;99.90;;;;;;5101778;28;21063;-71
2022/06/21 06:42:58;;;;;;;6.40;2.03;;;20.50;99.90;;;;;;5099865;28;20478;-72
2022/06/21 06:45:29;;;;;;;5.73;2.67;;;20.90;99.90;;;;;;5103566;28;20440;-71
2022/06/21 06:48:03;;;;;;;5.10;1.90;;;21.40;99.90;;;;;;5106635;27;20441;-71
2022/06/21 06:50:37;;;;;;;7.23;2.87;;;21.60;99.90;;;;;;5101746;28;20450;-71
2022/06/21 06:53:09;;;;;;;5.30;2.43;;;21.60;99.90;;;;;;5103176;28;20472;-72
2022/06/21 06:55:40;;;;;;;4.90;2.10;;;22.30;99.90;;;;;;5101255;28;21027;-71
2022/06/21 06:58:13;;;;;;;2.57;1.70;;;22.30;99.90;;;;;;5100984;28;20450;-71
2022/06/21 07:00:44;;;;;;;2.73;2.00;;;22.10;99.90;;;;;;5103908;28;20449;-72
2022/06/21 07:03:15;;;;;;;21.50;2.00;;;22.50;99.90;;;;;;5107724;27;20437;-72
2022/06/21 07:05:48;;;;;;;4.80;1.60;;;23.00;99.90;;;;;;5101208;28;20448;-72
2022/06/21 07:08:21;;;;;;;2.20;2.00;;;23.30;99.90;;;;;;5102657;28;20448;-71
2022/06/21 07:10:50;;;;;;;3.43;2.80;;;23.00;99.90;;;;;;5103751;28;20449;-72
2022/06/21 07:13:17;;;;;;;2.17;1.50;;;23.30;99.90;;;;;;5101999;28;20437;-72
2022/06/21 07:15:47;;;;;;;5.83;1.83;;;23.70;99.90;;;;;;5104573;28;20481;-71
2022/06/21 07:18:20;;;;;;;4.03;1.70;;;23.40;99.90;;;;;;5105325;28;20827;-71
2022/06/21 07:20:47;;;;;;;8.03;2.10;;;23.10;99.90;;;;;;5093729;28;20464;-72
2022/06/21 07:23:16;;;;;;;1.40;1.20;;;23.20;99.90;;;;;;5106221;28;20429;-71
2022/06/21 07:25:46;;;;;;;1.70;1.60;;;22.30;99.90;;;;;;5103673;28;20559;-71
2022/06/21 07:28:19;;;;;;;2.20;1.83;;;22.00;99.90;;;;;;5103851;28;20450;-71
2022/06/21 07:30:50;;;;;;;5.83;2.20;;;22.50;99.90;;;;;;5099978;28;20484;-71
2022/06/21 07:33:24;;;;;;;6.33;2.77;;;23.40;99.90;;;;;;5100411;28;20453;-71
2022/06/21 07:35:58;;;;;;;5.37;1.57;;;24.00;99.90;;;;;;5103668;28;20512;-72
2022/06/21 07:38:32;;;;;;;2.00;1.50;;;24.00;99.90;;;;;;5100716;28;20545;-71
2022/06/21 07:41:03;;;;;;;7.80;2.57;;;24.80;99.90;;;;;;5099598;28;20441;-72
2022/06/21 07:43:36;;;;;;;2.77;1.60;;;24.20;99.90;;;;;;5100424;28;21006;-72
2022/06/21 07:46:07;;;;;;;3.47;1.47;;;24.10;99.90;;;;;;5102769;28;20429;-71
2022/06/21 07:48:41;;;;;;;2.93;1.80;;;24.80;99.90;;;;;;5101411;28;20962;-71
2022/06/21 07:51:11;;;;;;;5.70;1.70;;;23.90;99.90;;;;;;5100368;28;20551;-71
2022/06/21 07:53:42;;;;;;;7.27;2.03;;;23.90;99.90;;;;;;5102206;28;20564;-72
2022/06/21 07:56:15;;;;;;;5.13;1.73;;;23.90;99.90;;;;;;5101808;28;20512;-72
2022/06/21 07:58:48;;;;;;;3.53;1.80;;;24.40;99.90;;;;;;5102147;28;20969;-71
2022/06/21 08:07:02;;;;;;;3.10;1.40;;;25.80;97.10;;;;;;5096705;28;20444;-72
2022/06/21 08:09:38;;;;;;;3.17;2.70;;;25.60;95.90;;;;;;5102686;28;20453;-72
2022/06/21 08:12:05;;;;;;;3.20;1.50;;;26.10;95.60;;;;;;5098243;28;20562;-71
2022/06/21 08:14:33;;;;;;;3.70;1.43;;;26.00;94.20;;;;;;5097758;28;20478;-72
2022/06/21 08:17:06;;;;;;;3.67;1.73;;;25.90;93.70;;;;;;5099766;28;20557;-71
2022/06/21 08:19:42;;;;;;;2.33;1.60;;;25.70;94.80;;;;;;5097973;28;20552;-71
2022/06/21 08:22:13;;;;;;;4.07;2.07;;;26.00;93.40;;;;;;5102589;28;20481;-71
2022/06/21 08:24:45;;;;;;;4.10;1.80;;;25.50;94.60;;;;;;5104620;27;20441;-71
2022/06/21 08:27:18;;;;;;;2.90;1.60;;;25.50;94.50;;;;;;5101721;27;20458;-71
2022/06/21 08:29:51;;;;;;;6.67;2.33;;;26.30;94.10;;;;;;5104926;27;20847;-71
2022/06/21 08:32:25;;;;;;;1.73;1.50;;;26.60;92.50;;;;;;5108210;28;20457;-71
2022/06/21 08:34:59;;;;;;;2.80;1.17;;;26.40;91.30;;;;;;5106103;27;20489;-71
2022/06/21 08:37:35;;;;;;;2.10;1.40;;;26.00;91.30;;;;;;5106207;28;20801;-71
2022/06/21 08:40:10;;;;;;;1.57;1.30;;;25.90;92.50;;;;;;5104033;27;20493;-71
2022/06/21 08:43:09;;;;;;;2.57;1.10;;;26.10;91.50;;;;;;5103773;28;20469;-71
2022/06/21 08:46:20;;;;;;;2.90;1.20;;;25.60;91.90;;;;;;5101294;28;20533;-70
2022/06/21 08:49:15;;;;;;;4.53;1.20;;;25.50;91.10;;;;;;5102718;28;20449;-72
2022/06/21 08:52:09;;;;;;;6.17;1.40;;;25.60;90.60;;;;;;5102164;28;20482;-72
2022/06/21 08:54:48;;;;;;;2.87;1.27;;;26.50;90.40;;;;;;5102200;28;20445;-71
2022/06/21 08:57:21;;;;;;;1.40;1.13;;;26.90;85.70;;;;;;5103008;28;20481;-72
2022/06/21 09:00:05;;;;;;;1.40;1.13;;;26.50;88.40;;;;;;5104857;27;20449;-72
2022/06/21 09:02:44;;;;;;;3.70;1.70;;;27.10;87.20;;;;;;5104679;28;20457;-72
2022/06/21 09:05:24;;;;;;;7.07;1.40;;;27.30;85.10;;;;;;5102364;28;20444;-72
2022/06/21 09:08:10;;;;;;;2.23;1.30;;;27.60;84.50;;;;;;5105883;28;20453;-72
2022/06/21 09:10:54;;;;;;;4.40;1.27;;;28.30;84.20;;;;;;5106228;28;20448;-72
2022/06/21 09:13:46;;;;;;;5.83;1.40;;;28.30;83.40;;;;;;5102716;28;21347;-72
2022/06/21 09:16:20;;;;;;;4.83;1.47;;;29.00;77.10;;;;;;5104908;27;20480;-72
2022/06/21 09:19:06;;;;;;;4.40;1.47;;;28.90;76.80;;;;;;5104157;28;20456;-72
2022/06/21 09:21:45;;;;;;;3.30;1.67;;;29.10;76.70;;;;;;5104165;28;20494;-71
2022/06/21 09:24:27;;;;;;;4.10;1.87;;;28.60;76.80;;;;;;5104980;28;20445;-71
2022/06/21 09:26:59;;;;;;;4.30;1.43;;;28.40;74.90;;;;;;5106013;27;20536;-71
2022/06/21 09:29:30;;;;;;;4.40;1.73;;;28.00;73.40;;;;;;5103067;28;20445;-71
2022/06/21 09:32:09;;;;;;;3.40;1.50;;;28.60;72.40;;;;;;5104445;28;20461;-71
2022/06/21 09:34:46;;;;;;;1.57;1.47;;;28.80;70.70;;;;;;5104119;27;20464;-71
2022/06/21 09:37:24;;;;;;;2.83;2.63;;;28.80;71.50;;;;;;5107308;28;20464;-71
2022/06/21 09:39:56;;;;;;;3.57;1.50;;;27.90;72.60;;;;;;5099877;28;20855;-71
2022/06/21 09:42:29;;;;;;;2.87;1.43;;;27.90;75.30;;;;;;5106621;28;20492;-71
2022/06/21 09:45:07;;;;;;;2.77;1.67;;;28.40;71.20;;;;;;5107057;28;21141;-71
2022/06/21 09:47:46;;;;;;;19.43;2.13;;;27.50;72.90;;;;;;5103782;28;20480;-71
2022/06/21 09:50:22;;;;;;;2.20;1.93;;;27.70;74.20;;;;;;5106233;28;20525;-71
2022/06/21 09:52:56;;;;;;;4.13;1.93;;;27.60;73.20;;;;;;5102934;28;20464;-71
2022/06/21 09:55:36;;;;;;;5.40;1.67;;;27.00;73.20;;;;;;5106814;28;20493;-71
2022/06/21 09:58:10;;;;;;;2.40;1.67;;;27.00;71.70;;;;;;5113431;28;20429;-71
2022/06/21 10:00:42;;;;;;;4.50;1.50;;;27.20;71.00;;;;;;5113266;28;21048;-71
2022/06/21 10:03:21;;;;;;;6.67;2.33;;;27.60;70.20;;;;;;5110748;27;20452;-71
2022/06/21 10:05:52;;;;;;;2.40;1.40;;;27.90;70.70;;;;;;5108223;28;20465;-71
2022/06/21 10:08:29;;;;;;;3.47;1.80;;;28.10;69.60;;;;;;5107348;27;20525;-71
2022/06/21 10:11:11;;;;;;;2.67;1.50;;;27.60;72.60;;;;;;5105253;28;20449;-71
2022/06/21 10:14:17;;;;;;;2.00;1.53;;;27.90;72.10;;;;;;5104968;28;20459;-71
2022/06/21 10:17:00;;;;;;;4.90;1.70;;;27.90;71.70;;;;;;5105568;28;20839;-71
2022/06/21 10:19:39;;;;;;;5.93;1.83;;;28.60;70.20;;;;;;5105440;28;20552;-71
2022/06/21 10:22:24;;;;;;;1.73;1.30;;;28.70;68.60;;;;;;5102110;28;20477;-71
2022/06/21 10:25:10;;;;;;;2.40;1.57;;;27.60;69.90;;;;;;5104461;27;20459;-71
2022/06/21 10:27:51;;;;;;;3.77;2.10;;;27.00;71.90;;;;;;5104296;28;20461;-71
2022/06/21 10:30:32;;;;;;;1.50;1.40;;;27.90;70.50;;;;;;5098019;28;20816;-71
2022/06/21 10:33:24;;;;;;;2.07;1.73;;;28.10;69.10;;;;;;5101197;28;20453;-72
2022/06/21 10:36:03;;;;;;;2.07;1.13;;;27.80;70.80;;;;;;5101811;27;21040;-71
2022/06/21 10:38:49;;;;;;;2.70;1.80;;;27.70;70.70;;;;;;5100533;28;20528;-71
2022/06/21 10:41:31;;;;;;;4.07;1.80;;;26.90;70.30;;;;;;5103373;28;20500;-71
2022/06/21 10:44:30;;;;;;;3.63;1.73;;;26.30;73.60;;;;;;5099069;28;20444;-71
2022/06/21 10:47:03;;;;;;;3.63;1.60;;;25.90;74.20;;;;;;5097575;28;20449;-71
2022/06/21 10:50:08;;;;;;;8.33;2.10;;;25.10;75.30;;;;;;5100983;27;20458;-71
2022/06/21 10:52:52;;;;;;;2.13;1.60;;;25.10;78.20;;;;;;5067483;28;20463;-71
2022/06/21 10:55:47;;;;;;;2.20;1.60;;;25.60;77.30;;;;;;5104794;28;20816;-71
2022/06/21 10:58:27;;;;;;;2.10;1.40;;;26.40;75.90;;;;;;5105668;27;20449;-72
2022/06/21 11:01:18;;;;;;;4.07;1.63;;;28.20;72.20;;;;;;5098717;28;20437;-71
2022/06/21 11:04:12;;;;;;;2.10;1.77;;;29.50;69.00;;;;;;5105270;28;20433;-71
2022/06/21 11:06:46;;;;;;;2.03;1.83;;;29.30;66.70;;;;;;5103811;28;20815;-70
2022/06/21 11:09:16;;;;;;;3.20;2.10;;;28.40;67.60;;;;;;5105176;28;20438;-71
2022/06/21 11:11:51;;;;;;;4.27;1.87;;;27.70;70.90;;;;;;5102982;28;20570;-71
2022/06/21 11:14:33;;;;;;;5.33;1.97;;;27.90;68.50;;;;;;5101894;28;20441;-71
2022/06/21 11:17:13;;;;;;;5.20;2.00;;;27.80;70.90;;;;;;5104390;27;20480;-71
2022/06/21 11:19:47;;;;;;;1.80;1.60;;;26.90;72.10;;;;;;5100221;28;20467;-72
2022/06/21 11:22:34;;;;;;;2.20;1.80;;;26.70;73.00;;;;;;5096694;28;21293;-72
2022/06/21 11:25:16;;;;;;;2.80;1.80;;;28.20;74.30;;;;;;5101278;28;20574;-70
2022/06/21 11:27:50;;;;;;;4.00;1.63;;;30.00;69.40;;;;;;5100844;28;20493;-70
2022/06/21 11:30:23;;;;;;;1.50;1.23;;;30.40;67.40;;;;;;5100347;28;20450;-73
2022/06/21 11:33:02;;;;;;;3.20;1.93;;;29.70;65.80;;;;;;5104755;28;20497;-71
2022/06/21 11:35:38;;;;;;;2.13;1.70;;;28.90;68.50;;;;;;5098933;28;21009;-71
2022/06/21 11:38:36;;;;;;;2.87;2.50;;;27.70;69.00;;;;;;5102485;28;20471;-72
2022/06/21 11:41:09;;;;;;;4.57;2.53;;;28.50;70.10;;;;;;5101763;28;20461;-72
2022/06/21 11:43:50;;;;;;;2.77;2.17;;;29.80;67.10;;;;;;5099522;28;20453;-72
2022/06/21 11:46:26;;;;;;;3.97;1.60;;;29.60;68.30;;;;;;5101426;28;20522;-72
2022/06/21 11:49:34;;;;;;;2.53;1.60;;;30.20;63.20;;;;;;5105378;28;20449;-72
2022/06/21 11:52:31;;;;;;;2.30;1.33;;;30.70;63.50;;;;;;5100860;28;20824;-72
2022/06/21 11:55:15;;;;;;;4.23;1.60;;;30.30;60.80;;;;;;5071992;28;20470;-72
2022/06/21 11:57:48;;;;;;;4.43;1.33;;;29.70;63.30;;;;;;5107890;28;20483;-72
2022/06/21 12:00:22;;;;;;;6.73;1.50;;;29.80;62.00;;;;;;5098731;28;20463;-72
2022/06/21 12:02:55;;;;;;;2.17;1.53;;;29.60;62.80;;;;;;5100795;28;20567;-72
2022/06/21 12:05:32;;;;;;;2.00;1.20;;;29.90;63.00;;;;;;5103825;27;20524;-72
2022/06/21 12:08:08;;;;;;;1.63;1.50;;;29.90;61.40;;;;;;5106075;27;20532;-72
2022/06/21 12:10:47;;;;;;;3.00;1.20;;;30.00;62.20;;;;;;5105411;28;20810;-72
2022/06/21 12:13:27;;;;;;;2.23;1.40;;;29.70;59.90;;;;;;5102547;28;20513;-72
2022/06/21 12:16:07;;;;;;;2.03;1.50;;;29.50;61.20;;;;;;5104150;28;20491;-72
2022/06/21 12:18:36;;;;;;;2.37;1.30;;;29.00;60.40;;;;;;5105608;28;20450;-72
2022/06/21 12:21:09;;;;;;;2.10;1.67;;;28.10;59.10;;;;;;5099561;27;20950;-72
2022/06/21 12:23:41;;;;;;;1.63;1.30;;;27.80;61.20;;;;;;5104215;27;20933;-72
2022/06/21 12:26:12;;;;;;;2.20;1.40;;;27.80;59.60;;;;;;5103868;28;20454;-71
2022/06/21 12:28:40;;;;;;;2.43;1.30;;;27.50;59.10;;;;;;5100119;28;20464;-72
2022/06/21 12:31:15;;;;;;;1.50;1.30;;;26.90;62.10;;;;;;5104414;27;20528;-74
2022/06/21 12:33:44;;;;;;;4.77;1.80;;;26.60;63.40;;;;;;5106402;27;20452;-72
2022/06/21 12:36:27;;;;;;;3.60;1.73;;;26.50;63.90;;;;;;5103947;28;20469;-72
2022/06/21 12:38:58;;;;;;;1.77;1.47;;;26.30;64.80;;;;;;5098550;28;20445;-71
2022/06/21 12:41:36;;;;;;;1.63;1.40;;;26.00;65.40;;;;;;5103914;27;20513;-71
2022/06/21 12:44:16;;;;;;;3.67;2.30;;;25.90;65.60;;;;;;5103481;28;20438;-71
2022/06/21 12:46:50;;;;;;;2.40;1.30;;;25.30;67.30;;;;;;5099727;27;20549;-71
2022/06/21 12:49:37;;;;;;;3.67;1.50;;;25.50;67.00;;;;;;5102871;28;20476;-71
2022/06/21 12:52:13;;;;;;;4.57;1.70;;;25.70;69.20;;;;;;5102565;28;20504;-71
2022/06/21 12:54:52;;;;;;;4.30;1.30;;;25.70;66.90;;;;;;5101436;28;20505;-71
2022/06/21 12:57:38;;;;;;;3.40;1.60;;;25.70;68.70;;;;;;5103981;27;20540;-71
2022/06/21 13:00:10;;;;;;;2.23;1.37;;;26.00;66.60;;;;;;5084779;27;20532;-72
2022/06/21 13:02:57;;;;;;;3.20;1.40;;;26.10;67.80;;;;;;5097851;28;20488;-72
2022/06/21 13:05:38;;;;;;;5.77;1.47;;;26.00;68.10;;;;;;5104331;28;20532;-71
2022/06/21 13:08:44;;;;;;;4.90;1.67;;;25.80;67.30;;;;;;5102877;28;20441;-72
2022/06/21 13:11:27;;;;;;;2.03;1.53;;;26.10;67.70;;;;;;5096022;28;20521;-72
2022/06/21 13:14:16;;;;;;;2.87;1.60;;;26.90;66.80;;;;;;5101052;27;20456;-72
2022/06/21 13:16:52;;;;;;;2.27;1.30;;;28.70;65.30;;;;;;5098695;28;20849;-70
2022/06/21 13:19:35;;;;;;;2.80;1.67;;;30.30;62.30;;;;;;5102070;27;20441;-70
2022/06/21 13:22:13;;;;;;;3.83;1.40;;;30.60;58.10;;;;;;5103025;28;20481;-71
2022/06/21 13:24:55;;;;;;;1.70;1.20;;;29.80;57.10;;;;;;5100416;27;20425;-71
2022/06/21 13:27:35;;;;;;;1.60;1.30;;;29.40;57.80;;;;;;5101929;28;20437;-71
2022/06/21 13:30:28;;;;;;;2.27;1.53;;;29.70;58.90;;;;;;5102536;28;20507;-72
2022/06/21 13:32:56;;;;;;;3.13;1.53;;;30.90;55.70;;;;;;5109102;27;20458;-71
2022/06/21 13:35:30;;;;;;;2.13;1.10;;;31.80;55.60;;;;;;5102536;28;20453;-71
2022/06/21 13:38:02;;;;;;;3.40;1.20;;;32.40;56.00;;;;;;5103501;28;20481;-71